sensor_id;sensor_type;location;lat;lon;timestamp;temperature;humidity
11559;DHT22;5835;42.930;25.178;2022-11-11T00:01:22;7.10;99.90
11559;DHT22;5835;42.930;25.178;2022-11-11T00:03:54;6.80;99.90
11559;DHT22;5835;42.930;25.178;2022-11-11T00:06:22;6.90;99.90
11559;DHT22;5835;42.930;25.178;2022-11-11T00:08:49;6.90;99.90
11559;DHT22;5835;42.930;25.178;2022-11-11T00:11:17;6.90;99.90
11559;DHT22;5835;42.930;25.178;2022-11-11T00:13:45;6.80;99.90
11559;DHT22;5835;42.930;25.178;2022-11-11T00:16:14;6.70;99.90
11559;DHT22;5835;42.930;25.178;2022-11-11T00:18:44;6.70;99.90
11559;DHT22;5835;42.930;25.178;2022-11-11T00:21:29;6.60;99.90
11559;DHT22;5835;42.930;25.178;2022-11-11T00:24:22;6.40;99.90
11559;DHT22;5835;42.930;25.178;2022-11-11T00:27:09;6.30;99.90
11559;DHT22;5835;42.930;25.178;2022-11-11T00:29:37;6.50;99.90
11559;DHT22;5835;42.930;25.178;2022-11-11T00:32:05;6.60;99.90
11559;DHT22;5835;42.930;25.178;2022-11-11T00:34:58;6.60;99.90
11559;DHT22;5835;42.930;25.178;2022-11-11T00:37:45;6.70;99.90
11559;DHT22;5835;42.930;25.178;2022-11-11T00:40:14;6.50;99.90
11559;DHT22;5835;42.930;25.178;2022-11-11T00:42:41;6.50;99.90
11559;DHT22;5835;42.930;25.178;2022-11-11T00:45:10;6.30;99.90
11559;DHT22;5835;42.930;25.178;2022-11-11T00:47:37;6.00;99.90
11559;DHT22;5835;42.930;25.178;2022-11-11T00:50:26;6.10;99.90
11559;DHT22;5835;42.930;25.178;2022-11-11T00:53:12;6.10;99.90
11559;DHT22;5835;42.930;25.178;2022-11-11T00:55:40;6.10;99.90
11559;DHT22;5835;42.930;25.178;2022-11-11T00:58:08;6.10;99.90
11559;DHT22;5835;42.930;25.178;2022-11-11T01:00:36;6.20;99.90
11559;DHT22;5835;42.930;25.178;2022-11-11T01:03:04;6.40;99.90
11559;DHT22;5835;42.930;25.178;2022-11-11T01:05:32;6.30;99.90
11559;DHT22;5835;42.930;25.178;2022-11-11T01:08:00;6.20;99.90
11559;DHT22;5835;42.930;25.178;2022-11-11T01:10:28;6.40;99.90
11559;DHT22;5835;42.930;25.178;2022-11-11T01:13:06;6.40;99.90
11559;DHT22;5835;42.930;25.178;2022-11-11T01:15:40;6.50;99.90
11559;DHT22;5835;42.930;25.178;2022-11-11T01:18:10;6.50;99.90
11559;DHT22;5835;42.930;25.178;2022-11-11T01:20:39;6.60;99.90
11559;DHT22;5835;42.930;25.178;2022-11-11T01:23:08;6.70;99.90
11559;DHT22;5835;42.930;25.178;2022-11-11T01:25:37;6.70;99.90
11559;DHT22;5835;42.930;25.178;2022-11-11T01:28:06;6.70;99.90
11559;DHT22;5835;42.930;25.178;2022-11-11T01:30:35;6.60;99.90
11559;DHT22;5835;42.930;25.178;2022-11-11T01:33:02;6.60;99.90
11559;DHT22;5835;42.930;25.178;2022-11-11T01:35:30;6.50;99.90
11559;DHT22;5835;42.930;25.178;2022-11-11T01:38:00;6.50;99.90
11559;DHT22;5835;42.930;25.178;2022-11-11T01:40:27;6.60;99.90
11559;DHT22;5835;42.930;25.178;2022-11-11T01:43:20;6.60;99.90
11559;DHT22;5835;42.930;25.178;2022-11-11T01:45:52;6.70;99.90
11559;DHT22;5835;42.930;25.178;2022-11-11T01:48:25;6.80;99.90
11559;DHT22;5835;42.930;25.178;2022-11-11T01:51:16;6.90;99.90
11559;DHT22;5835;42.930;25.178;2022-11-11T01:53:48;6.90;99.90
11559;DHT22;5835;42.930;25.178;2022-11-11T01:56:18;6.90;99.90
11559;DHT22;5835;42.930;25.178;2022-11-11T01:58:47;6.90;99.90
11559;DHT22;5835;42.930;25.178;2022-11-11T02:01:16;7.00;99.90
11559;DHT22;5835;42.930;25.178;2022-11-11T02:03:44;6.90;99.90
11559;DHT22;5835;42.930;25.178;2022-11-11T02:06:33;6.80;99.90
11559;DHT22;5835;42.930;25.178;2022-11-11T02:09:03;6.80;99.90
11559;DHT22;5835;42.930;25.178;2022-11-11T02:11:32;6.80;99.90
11559;DHT22;5835;42.930;25.178;2022-11-11T02:14:18;6.80;99.90
11559;DHT22;5835;42.930;25.178;2022-11-11T02:17:07;6.80;99.90
11559;DHT22;5835;42.930;25.178;2022-11-11T02:19:43;6.70;99.90
11559;DHT22;5835;42.930;25.178;2022-11-11T02:22:15;6.50;99.90
11559;DHT22;5835;42.930;25.178;2022-11-11T02:24:45;6.60;99.90
11559;DHT22;5835;42.930;25.178;2022-11-11T02:27:15;6.60;99.90
11559;DHT22;5835;42.930;25.178;2022-11-11T02:29:46;6.60;99.90
11559;DHT22;5835;42.930;25.178;2022-11-11T02:32:15;6.80;99.90
11559;DHT22;5835;42.930;25.178;2022-11-11T02:34:43;6.90;99.90
11559;DHT22;5835;42.930;25.178;2022-11-11T02:37:11;6.70;99.90
11559;DHT22;5835;42.930;25.178;2022-11-11T02:39:43;6.60;99.90
11559;DHT22;5835;42.930;25.178;2022-11-11T02:42:14;6.70;99.90
11559;DHT22;5835;42.930;25.178;2022-11-11T02:44:42;6.70;99.90
11559;DHT22;5835;42.930;25.178;2022-11-11T02:47:10;6.70;99.90
11559;DHT22;5835;42.930;25.178;2022-11-11T02:49:38;6.60;99.90
11559;DHT22;5835;42.930;25.178;2022-11-11T02:52:05;6.70;99.90
11559;DHT22;5835;42.930;25.178;2022-11-11T02:54:32;6.70;99.90
11559;DHT22;5835;42.930;25.178;2022-11-11T02:56:59;6.80;99.90
11559;DHT22;5835;42.930;25.178;2022-11-11T02:59:35;6.70;99.90
11559;DHT22;5835;42.930;25.178;2022-11-11T03:02:03;6.60;99.90
11559;DHT22;5835;42.930;25.178;2022-11-11T03:04:31;6.70;99.90
11559;DHT22;5835;42.930;25.178;2022-11-11T03:06:58;6.70;99.90
11559;DHT22;5835;42.930;25.178;2022-11-11T03:09:26;6.70;99.90
11559;DHT22;5835;42.930;25.178;2022-11-11T03:11:53;6.60;99.90
11559;DHT22;5835;42.930;25.178;2022-11-11T03:14:21;6.60;99.90
11559;DHT22;5835;42.930;25.178;2022-11-11T03:16:50;6.80;99.90
11559;DHT22;5835;42.930;25.178;2022-11-11T03:19:35;6.70;99.90
11559;DHT22;5835;42.930;25.178;2022-11-11T03:22:03;6.60;99.90
11559;DHT22;5835;42.930;25.178;2022-11-11T03:24:30;6.40;99.90
11559;DHT22;5835;42.930;25.178;2022-11-11T03:27:11;6.30;99.90
11559;DHT22;5835;42.930;25.178;2022-11-11T03:29:39;6.30;99.90
11559;DHT22;5835;42.930;25.178;2022-11-11T03:32:09;6.10;99.90
11559;DHT22;5835;42.930;25.178;2022-11-11T03:34:37;6.30;99.90
11559;DHT22;5835;42.930;25.178;2022-11-11T03:37:06;6.40;99.90
11559;DHT22;5835;42.930;25.178;2022-11-11T03:39:51;6.20;99.90
11559;DHT22;5835;42.930;25.178;2022-11-11T03:42:18;6.30;99.90
11559;DHT22;5835;42.930;25.178;2022-11-11T03:44:45;6.40;99.90
11559;DHT22;5835;42.930;25.178;2022-11-11T03:47:15;6.40;99.90
11559;DHT22;5835;42.930;25.178;2022-11-11T03:49:42;6.60;99.90
11559;DHT22;5835;42.930;25.178;2022-11-11T03:52:11;6.90;99.90
11559;DHT22;5835;42.930;25.178;2022-11-11T03:54:39;6.90;99.90
11559;DHT22;5835;42.930;25.178;2022-11-11T03:57:07;7.00;99.90
11559;DHT22;5835;42.930;25.178;2022-11-11T03:59:52;6.80;99.90
11559;DHT22;5835;42.930;25.178;2022-11-11T04:02:21;6.90;99.90
11559;DHT22;5835;42.930;25.178;2022-11-11T04:05:06;6.80;99.90
11559;DHT22;5835;42.930;25.178;2022-11-11T04:07:51;6.60;99.90
11559;DHT22;5835;42.930;25.178;2022-11-11T04:10:36;6.70;99.90
11559;DHT22;5835;42.930;25.178;2022-11-11T04:13:04;6.70;99.90
11559;DHT22;5835;42.930;25.178;2022-11-11T04:15:49;6.80;99.90
11559;DHT22;5835;42.930;25.178;2022-11-11T04:18:36;6.80;99.90
11559;DHT22;5835;42.930;25.178;2022-11-11T04:21:22;6.80;99.90
11559;DHT22;5835;42.930;25.178;2022-11-11T04:24:08;6.70;99.90
11559;DHT22;5835;42.930;25.178;2022-11-11T04:26:54;6.70;99.90
11559;DHT22;5835;42.930;25.178;2022-11-11T04:29:22;6.80;99.90
11559;DHT22;5835;42.930;25.178;2022-11-11T04:31:56;6.90;99.90
11559;DHT22;5835;42.930;25.178;2022-11-11T04:34:44;7.00;99.90
11559;DHT22;5835;42.930;25.178;2022-11-11T04:37:12;7.20;99.90
11559;DHT22;5835;42.930;25.178;2022-11-11T04:39:40;7.20;99.90
11559;DHT22;5835;42.930;25.178;2022-11-11T04:42:25;7.30;99.90
11559;DHT22;5835;42.930;25.178;2022-11-11T04:44:53;7.50;99.90
11559;DHT22;5835;42.930;25.178;2022-11-11T04:47:37;7.60;99.90
11559;DHT22;5835;42.930;25.178;2022-11-11T04:50:08;7.60;99.90
11559;DHT22;5835;42.930;25.178;2022-11-11T04:52:36;7.60;99.90
11559;DHT22;5835;42.930;25.178;2022-11-11T04:55:04;7.60;99.90
11559;DHT22;5835;42.930;25.178;2022-11-11T04:57:49;7.80;99.90
11559;DHT22;5835;42.930;25.178;2022-11-11T05:00:17;7.80;99.90
11559;DHT22;5835;42.930;25.178;2022-11-11T05:02:45;7.80;99.90
11559;DHT22;5835;42.930;25.178;2022-11-11T05:05:31;7.90;99.90
11559;DHT22;5835;42.930;25.178;2022-11-11T05:08:19;8.00;99.90
11559;DHT22;5835;42.930;25.178;2022-11-11T05:11:04;8.00;99.90
11559;DHT22;5835;42.930;25.178;2022-11-11T05:13:32;8.00;99.90
11559;DHT22;5835;42.930;25.178;2022-11-11T05:16:20;8.00;99.90
11559;DHT22;5835;42.930;25.178;2022-11-11T05:19:07;8.20;99.90
11559;DHT22;5835;42.930;25.178;2022-11-11T05:21:56;8.30;99.90
11559;DHT22;5835;42.930;25.178;2022-11-11T05:24:26;8.30;99.90
11559;DHT22;5835;42.930;25.178;2022-11-11T05:27:10;8.50;99.90
11559;DHT22;5835;42.930;25.178;2022-11-11T05:29:38;8.50;99.90
11559;DHT22;5835;42.930;25.178;2022-11-11T05:32:07;8.40;99.90
11559;DHT22;5835;42.930;25.178;2022-11-11T05:34:35;8.40;99.90
11559;DHT22;5835;42.930;25.178;2022-11-11T05:37:05;8.40;99.90
11559;DHT22;5835;42.930;25.178;2022-11-11T05:39:33;8.40;99.90
11559;DHT22;5835;42.930;25.178;2022-11-11T05:42:01;8.60;99.90
11559;DHT22;5835;42.930;25.178;2022-11-11T05:44:30;8.60;99.90
11559;DHT22;5835;42.930;25.178;2022-11-11T05:46:57;8.80;99.90
11559;DHT22;5835;42.930;25.178;2022-11-11T05:49:25;8.80;99.90
11559;DHT22;5835;42.930;25.178;2022-11-11T05:51:52;8.80;99.90
11559;DHT22;5835;42.930;25.178;2022-11-11T05:54:22;9.00;99.90
11559;DHT22;5835;42.930;25.178;2022-11-11T05:56:50;9.10;99.90
11559;DHT22;5835;42.930;25.178;2022-11-11T05:59:17;9.10;99.90
11559;DHT22;5835;42.930;25.178;2022-11-11T06:01:45;9.20;99.90
11559;DHT22;5835;42.930;25.178;2022-11-11T06:04:13;9.10;99.90
11559;DHT22;5835;42.930;25.178;2022-11-11T06:06:40;9.00;99.90
11559;DHT22;5835;42.930;25.178;2022-11-11T06:09:08;8.80;99.90
11559;DHT22;5835;42.930;25.178;2022-11-11T06:11:37;8.70;99.90
11559;DHT22;5835;42.930;25.178;2022-11-11T06:14:05;8.60;99.90
11559;DHT22;5835;42.930;25.178;2022-11-11T06:16:33;8.40;99.90
11559;DHT22;5835;42.930;25.178;2022-11-11T06:19:01;8.20;99.90
11559;DHT22;5835;42.930;25.178;2022-11-11T06:21:29;8.20;99.90
11559;DHT22;5835;42.930;25.178;2022-11-11T06:23:56;8.30;99.90
11559;DHT22;5835;42.930;25.178;2022-11-11T06:26:24;8.40;99.90
11559;DHT22;5835;42.930;25.178;2022-11-11T06:28:54;8.50;99.90
11559;DHT22;5835;42.930;25.178;2022-11-11T06:31:23;8.50;99.90
11559;DHT22;5835;42.930;25.178;2022-11-11T06:33:51;8.60;99.90
11559;DHT22;5835;42.930;25.178;2022-11-11T06:36:20;8.70;99.90
11559;DHT22;5835;42.930;25.178;2022-11-11T06:38:48;8.80;99.90
11559;DHT22;5835;42.930;25.178;2022-11-11T06:41:16;8.80;99.90
11559;DHT22;5835;42.930;25.178;2022-11-11T06:43:44;8.80;99.90
11559;DHT22;5835;42.930;25.178;2022-11-11T06:46:19;8.80;99.90
11559;DHT22;5835;42.930;25.178;2022-11-11T06:48:48;8.90;99.90
11559;DHT22;5835;42.930;25.178;2022-11-11T06:51:16;9.10;99.90
11559;DHT22;5835;42.930;25.178;2022-11-11T06:53:44;9.20;99.90
11559;DHT22;5835;42.930;25.178;2022-11-11T06:56:12;8.90;99.90
11559;DHT22;5835;42.930;25.178;2022-11-11T06:58:39;8.60;99.90
11559;DHT22;5835;42.930;25.178;2022-11-11T07:01:08;8.40;99.90
11559;DHT22;5835;42.930;25.178;2022-11-11T07:03:37;8.80;99.90
11559;DHT22;5835;42.930;25.178;2022-11-11T07:06:05;8.70;99.90
11559;DHT22;5835;42.930;25.178;2022-11-11T07:08:32;8.80;99.90
11559;DHT22;5835;42.930;25.178;2022-11-11T07:11:00;8.70;99.90
11559;DHT22;5835;42.930;25.178;2022-11-11T07:13:28;8.60;99.90
11559;DHT22;5835;42.930;25.178;2022-11-11T07:15:55;8.70;99.90
11559;DHT22;5835;42.930;25.178;2022-11-11T07:18:23;8.80;99.90
11559;DHT22;5835;42.930;25.178;2022-11-11T07:20:51;9.00;99.90
11559;DHT22;5835;42.930;25.178;2022-11-11T07:23:19;9.00;99.90
11559;DHT22;5835;42.930;25.178;2022-11-11T07:25:46;9.00;99.90
11559;DHT22;5835;42.930;25.178;2022-11-11T07:28:13;8.90;99.90
11559;DHT22;5835;42.930;25.178;2022-11-11T07:30:41;9.00;99.90
11559;DHT22;5835;42.930;25.178;2022-11-11T07:33:09;9.00;99.90
11559;DHT22;5835;42.930;25.178;2022-11-11T07:35:36;9.00;99.90
11559;DHT22;5835;42.930;25.178;2022-11-11T07:38:05;9.00;99.90
11559;DHT22;5835;42.930;25.178;2022-11-11T07:40:36;9.00;99.90
11559;DHT22;5835;42.930;25.178;2022-11-11T07:43:03;9.20;99.90
11559;DHT22;5835;42.930;25.178;2022-11-11T07:45:31;9.20;99.90
11559;DHT22;5835;42.930;25.178;2022-11-11T07:47:58;9.60;99.90
11559;DHT22;5835;42.930;25.178;2022-11-11T07:50:26;9.90;99.90
11559;DHT22;5835;42.930;25.178;2022-11-11T07:52:53;9.90;99.90
11559;DHT22;5835;42.930;25.178;2022-11-11T07:55:23;10.00;99.90
11559;DHT22;5835;42.930;25.178;2022-11-11T07:57:51;10.10;99.90
11559;DHT22;5835;42.930;25.178;2022-11-11T08:00:19;10.20;99.90
11559;DHT22;5835;42.930;25.178;2022-11-11T08:02:48;10.10;99.90
11559;DHT22;5835;42.930;25.178;2022-11-11T08:05:16;10.20;99.90
11559;DHT22;5835;42.930;25.178;2022-11-11T08:07:44;10.20;99.90
11559;DHT22;5835;42.930;25.178;2022-11-11T08:10:11;10.10;99.90
11559;DHT22;5835;42.930;25.178;2022-11-11T08:12:40;10.10;99.90
11559;DHT22;5835;42.930;25.178;2022-11-11T08:15:25;10.20;99.90
11559;DHT22;5835;42.930;25.178;2022-11-11T08:17:53;10.30;99.90
11559;DHT22;5835;42.930;25.178;2022-11-11T08:20:20;10.30;99.90
11559;DHT22;5835;42.930;25.178;2022-11-11T08:22:48;10.30;99.90
11559;DHT22;5835;42.930;25.178;2022-11-11T08:25:19;10.20;99.90
11559;DHT22;5835;42.930;25.178;2022-11-11T08:27:55;10.20;99.90
11559;DHT22;5835;42.930;25.178;2022-11-11T08:30:23;9.80;99.90
11559;DHT22;5835;42.930;25.178;2022-11-11T08:32:56;9.70;99.90
11559;DHT22;5835;42.930;25.178;2022-11-11T08:35:24;10.10;99.90
11559;DHT22;5835;42.930;25.178;2022-11-11T08:37:52;10.30;99.90
11559;DHT22;5835;42.930;25.178;2022-11-11T08:40:20;10.30;99.90
11559;DHT22;5835;42.930;25.178;2022-11-11T08:42:49;10.40;99.90
11559;DHT22;5835;42.930;25.178;2022-11-11T08:45:17;10.40;99.90
11559;DHT22;5835;42.930;25.178;2022-11-11T08:47:44;10.40;99.90
11559;DHT22;5835;42.930;25.178;2022-11-11T08:50:12;10.40;99.90
11559;DHT22;5835;42.930;25.178;2022-11-11T08:52:45;10.40;99.90
11559;DHT22;5835;42.930;25.178;2022-11-11T08:55:12;10.40;99.90
11559;DHT22;5835;42.930;25.178;2022-11-11T08:57:40;10.40;99.90
11559;DHT22;5835;42.930;25.178;2022-11-11T09:00:10;10.40;99.90
11559;DHT22;5835;42.930;25.178;2022-11-11T09:02:38;10.40;99.90
11559;DHT22;5835;42.930;25.178;2022-11-11T09:05:06;10.40;99.90
11559;DHT22;5835;42.930;25.178;2022-11-11T09:07:34;10.40;99.90
11559;DHT22;5835;42.930;25.178;2022-11-11T09:10:01;10.40;99.90
11559;DHT22;5835;42.930;25.178;2022-11-11T09:12:29;10.40;99.90
11559;DHT22;5835;42.930;25.178;2022-11-11T09:14:56;10.40;99.90
11559;DHT22;5835;42.930;25.178;2022-11-11T09:17:27;10.40;99.90
11559;DHT22;5835;42.930;25.178;2022-11-11T09:19:56;10.40;99.90
11559;DHT22;5835;42.930;25.178;2022-11-11T09:22:23;10.40;99.90
11559;DHT22;5835;42.930;25.178;2022-11-11T09:24:51;10.40;99.90
11559;DHT22;5835;42.930;25.178;2022-11-11T09:27:18;10.40;99.90
11559;DHT22;5835;42.930;25.178;2022-11-11T09:29:45;10.40;99.90
11559;DHT22;5835;42.930;25.178;2022-11-11T09:32:13;10.40;99.90
11559;DHT22;5835;42.930;25.178;2022-11-11T09:34:42;10.30;99.90
11559;DHT22;5835;42.930;25.178;2022-11-11T09:37:09;10.30;99.90
11559;DHT22;5835;42.930;25.178;2022-11-11T09:39:37;10.30;99.90
11559;DHT22;5835;42.930;25.178;2022-11-11T09:42:10;10.30;99.90
11559;DHT22;5835;42.930;25.178;2022-11-11T09:45:00;10.20;99.90
11559;DHT22;5835;42.930;25.178;2022-11-11T09:47:34;10.30;99.90
11559;DHT22;5835;42.930;25.178;2022-11-11T09:50:09;10.20;99.90
11559;DHT22;5835;42.930;25.178;2022-11-11T09:52:40;10.20;99.90
11559;DHT22;5835;42.930;25.178;2022-11-11T09:55:15;10.20;99.90
11559;DHT22;5835;42.930;25.178;2022-11-11T09:57:48;10.20;99.90
11559;DHT22;5835;42.930;25.178;2022-11-11T10:00:21;10.20;99.90
11559;DHT22;5835;42.930;25.178;2022-11-11T10:02:51;10.20;99.90
11559;DHT22;5835;42.930;25.178;2022-11-11T10:05:25;10.10;99.90
11559;DHT22;5835;42.930;25.178;2022-11-11T10:07:56;10.20;99.90
11559;DHT22;5835;42.930;25.178;2022-11-11T10:10:38;10.20;99.90
11559;DHT22;5835;42.930;25.178;2022-11-11T10:13:13;10.20;99.90
11559;DHT22;5835;42.930;25.178;2022-11-11T10:15:50;10.20;99.90
11559;DHT22;5835;42.930;25.178;2022-11-11T10:18:31;10.20;99.90
11559;DHT22;5835;42.930;25.178;2022-11-11T10:21:10;10.20;99.90
11559;DHT22;5835;42.930;25.178;2022-11-11T10:23:40;10.20;99.90
11559;DHT22;5835;42.930;25.178;2022-11-11T10:26:16;10.20;99.90
11559;DHT22;5835;42.930;25.178;2022-11-11T10:28:49;10.20;99.90
11559;DHT22;5835;42.930;25.178;2022-11-11T10:31:20;10.20;99.90
11559;DHT22;5835;42.930;25.178;2022-11-11T10:33:52;10.20;99.90
11559;DHT22;5835;42.930;25.178;2022-11-11T10:36:25;10.20;99.90
11559;DHT22;5835;42.930;25.178;2022-11-11T10:38:58;10.20;99.90
11559;DHT22;5835;42.930;25.178;2022-11-11T10:41:32;10.20;99.90
11559;DHT22;5835;42.930;25.178;2022-11-11T10:44:00;10.20;99.90
11559;DHT22;5835;42.930;25.178;2022-11-11T10:46:33;10.20;99.90
11559;DHT22;5835;42.930;25.178;2022-11-11T10:49:07;10.20;99.90
11559;DHT22;5835;42.930;25.178;2022-11-11T10:51:44;10.20;99.90
11559;DHT22;5835;42.930;25.178;2022-11-11T10:54:15;10.20;99.90
11559;DHT22;5835;42.930;25.178;2022-11-11T10:56:49;10.20;99.90
11559;DHT22;5835;42.930;25.178;2022-11-11T10:59:21;10.20;99.90
11559;DHT22;5835;42.930;25.178;2022-11-11T11:01:54;10.20;99.90
11559;DHT22;5835;42.930;25.178;2022-11-11T11:04:28;10.20;99.90
11559;DHT22;5835;42.930;25.178;2022-11-11T11:07:00;10.20;99.90
11559;DHT22;5835;42.930;25.178;2022-11-11T11:09:35;10.10;99.90
11559;DHT22;5835;42.930;25.178;2022-11-11T11:12:10;10.10;99.90
11559;DHT22;5835;42.930;25.178;2022-11-11T11:14:42;10.20;99.90
11559;DHT22;5835;42.930;25.178;2022-11-11T11:17:14;10.10;99.90
11559;DHT22;5835;42.930;25.178;2022-11-11T11:19:43;10.20;99.90
11559;DHT22;5835;42.930;25.178;2022-11-11T11:22:12;10.20;99.90
11559;DHT22;5835;42.930;25.178;2022-11-11T11:24:39;10.10;99.90
11559;DHT22;5835;42.930;25.178;2022-11-11T11:27:07;10.20;99.90
11559;DHT22;5835;42.930;25.178;2022-11-11T11:29:37;10.20;99.90
11559;DHT22;5835;42.930;25.178;2022-11-11T11:32:15;10.10;99.90
11559;DHT22;5835;42.930;25.178;2022-11-11T11:34:45;10.10;99.90
11559;DHT22;5835;42.930;25.178;2022-11-11T11:37:15;10.10;99.90
11559;DHT22;5835;42.930;25.178;2022-11-11T11:39:43;10.20;99.90
11559;DHT22;5835;42.930;25.178;2022-11-11T11:42:26;10.10;99.90
11559;DHT22;5835;42.930;25.178;2022-11-11T11:44:55;10.20;99.90
11559;DHT22;5835;42.930;25.178;2022-11-11T11:47:36;10.20;99.90
11559;DHT22;5835;42.930;25.178;2022-11-11T11:50:20;10.20;99.90
11559;DHT22;5835;42.930;25.178;2022-11-11T11:53:03;10.20;99.90
11559;DHT22;5835;42.930;25.178;2022-11-11T11:55:36;10.10;99.90
11559;DHT22;5835;42.930;25.178;2022-11-11T11:58:20;10.10;99.90
11559;DHT22;5835;42.930;25.178;2022-11-11T12:00:57;10.10;99.90
11559;DHT22;5835;42.930;25.178;2022-11-11T12:06:28;9.90;99.90
11559;DHT22;5835;42.930;25.178;2022-11-11T12:09:09;9.90;99.90
11559;DHT22;5835;42.930;25.178;2022-11-11T12:11:47;9.90;99.90
11559;DHT22;5835;42.930;25.178;2022-11-11T12:14:35;9.80;99.90
11559;DHT22;5835;42.930;25.178;2022-11-11T12:17:13;9.80;99.90
11559;DHT22;5835;42.930;25.178;2022-11-11T12:19:52;9.80;99.90
11559;DHT22;5835;42.930;25.178;2022-11-11T12:22:37;9.80;99.90
11559;DHT22;5835;42.930;25.178;2022-11-11T12:25:19;9.70;99.90
11559;DHT22;5835;42.930;25.178;2022-11-11T12:27:56;9.70;99.90
11559;DHT22;5835;42.930;25.178;2022-11-11T12:30:27;9.70;99.90
11559;DHT22;5835;42.930;25.178;2022-11-11T12:33:08;9.80;99.90
11559;DHT22;5835;42.930;25.178;2022-11-11T12:35:52;9.70;99.90
11559;DHT22;5835;42.930;25.178;2022-11-11T12:38:47;9.70;99.90
11559;DHT22;5835;42.930;25.178;2022-11-11T12:41:28;9.80;99.90
11559;DHT22;5835;42.930;25.178;2022-11-11T12:44:03;9.70;99.90
11559;DHT22;5835;42.930;25.178;2022-11-11T12:46:52;9.70;99.90
11559;DHT22;5835;42.930;25.178;2022-11-11T12:49:42;9.70;99.90
11559;DHT22;5835;42.930;25.178;2022-11-11T12:52:23;9.70;99.90
11559;DHT22;5835;42.930;25.178;2022-11-11T12:55:03;9.60;99.90
11559;DHT22;5835;42.930;25.178;2022-11-11T12:57:52;9.60;99.90
11559;DHT22;5835;42.930;25.178;2022-11-11T13:00:23;9.60;99.90
11559;DHT22;5835;42.930;25.178;2022-11-11T13:03:14;9.60;99.90
11559;DHT22;5835;42.930;25.178;2022-11-11T13:05:52;9.60;99.90
11559;DHT22;5835;42.930;25.178;2022-11-11T13:08:55;9.60;99.90
11559;DHT22;5835;42.930;25.178;2022-11-11T13:11:34;9.60;99.90
11559;DHT22;5835;42.930;25.178;2022-11-11T13:14:24;9.60;99.90
11559;DHT22;5835;42.930;25.178;2022-11-11T13:16:59;9.60;99.90
11559;DHT22;5835;42.930;25.178;2022-11-11T13:19:33;9.60;99.90
11559;DHT22;5835;42.930;25.178;2022-11-11T13:22:12;9.70;99.90
11559;DHT22;5835;42.930;25.178;2022-11-11T13:24:41;9.60;99.90
11559;DHT22;5835;42.930;25.178;2022-11-11T13:27:15;9.60;99.90
11559;DHT22;5835;42.930;25.178;2022-11-11T13:30:09;9.60;99.90
11559;DHT22;5835;42.930;25.178;2022-11-11T13:32:41;9.60;99.90
11559;DHT22;5835;42.930;25.178;2022-11-11T13:35:19;9.50;99.90
11559;DHT22;5835;42.930;25.178;2022-11-11T13:37:48;9.60;99.90
11559;DHT22;5835;42.930;25.178;2022-11-11T13:40:33;9.50;99.90
11559;DHT22;5835;42.930;25.178;2022-11-11T13:43:02;9.50;99.90
11559;DHT22;5835;42.930;25.178;2022-11-11T13:45:35;9.60;99.90
11559;DHT22;5835;42.930;25.178;2022-11-11T13:48:04;9.60;99.90
11559;DHT22;5835;42.930;25.178;2022-11-11T13:50:35;9.60;99.90
11559;DHT22;5835;42.930;25.178;2022-11-11T13:53:05;9.60;99.90
11559;DHT22;5835;42.930;25.178;2022-11-11T13:55:36;9.40;99.90
11559;DHT22;5835;42.930;25.178;2022-11-11T13:58:05;9.60;99.90
11559;DHT22;5835;42.930;25.178;2022-11-11T14:00:36;9.60;99.90
11559;DHT22;5835;42.930;25.178;2022-11-11T14:03:36;9.50;99.90
11559;DHT22;5835;42.930;25.178;2022-11-11T14:06:35;9.60;99.90
11559;DHT22;5835;42.930;25.178;2022-11-11T14:09:03;9.50;99.90
11559;DHT22;5835;42.930;25.178;2022-11-11T14:11:33;9.40;99.90
11559;DHT22;5835;42.930;25.178;2022-11-11T14:17:12;9.50;99.90
11559;DHT22;5835;42.930;25.178;2022-11-11T14:19:40;9.50;99.90
11559;DHT22;5835;42.930;25.178;2022-11-11T14:22:30;9.40;99.90
11559;DHT22;5835;42.930;25.178;2022-11-11T14:25:25;9.50;99.90
11559;DHT22;5835;42.930;25.178;2022-11-11T14:27:53;9.40;99.90
11559;DHT22;5835;42.930;25.178;2022-11-11T14:30:37;9.50;99.90
11559;DHT22;5835;42.930;25.178;2022-11-11T14:33:15;9.50;99.90
11559;DHT22;5835;42.930;25.178;2022-11-11T14:35:53;9.40;99.90
11559;DHT22;5835;42.930;25.178;2022-11-11T14:38:33;9.40;99.90
11559;DHT22;5835;42.930;25.178;2022-11-11T14:44:37;9.40;99.90
11559;DHT22;5835;42.930;25.178;2022-11-11T14:50:02;9.50;99.90
11559;DHT22;5835;42.930;25.178;2022-11-11T14:52:33;9.40;99.90
11559;DHT22;5835;42.930;25.178;2022-11-11T14:55:15;9.50;99.90
11559;DHT22;5835;42.930;25.178;2022-11-11T14:57:46;9.40;99.90
11559;DHT22;5835;42.930;25.178;2022-11-11T15:00:17;9.40;99.90
11559;DHT22;5835;42.930;25.178;2022-11-11T15:02:49;9.40;99.90
11559;DHT22;5835;42.930;25.178;2022-11-11T15:05:20;9.40;99.90
11559;DHT22;5835;42.930;25.178;2022-11-11T15:08:05;9.40;99.90
11559;DHT22;5835;42.930;25.178;2022-11-11T15:13:50;9.30;99.90
11559;DHT22;5835;42.930;25.178;2022-11-11T15:16:29;9.30;99.90
11559;DHT22;5835;42.930;25.178;2022-11-11T15:19:10;9.30;99.90
11559;DHT22;5835;42.930;25.178;2022-11-11T15:21:46;9.30;99.90
11559;DHT22;5835;42.930;25.178;2022-11-11T15:24:25;9.30;99.90
11559;DHT22;5835;42.930;25.178;2022-11-11T15:27:07;9.30;99.90
11559;DHT22;5835;42.930;25.178;2022-11-11T15:30:08;9.30;99.90
11559;DHT22;5835;42.930;25.178;2022-11-11T15:32:50;9.30;99.90
11559;DHT22;5835;42.930;25.178;2022-11-11T15:35:26;9.30;99.90
11559;DHT22;5835;42.930;25.178;2022-11-11T15:38:00;9.30;99.90
11559;DHT22;5835;42.930;25.178;2022-11-11T15:40:40;9.30;99.90
11559;DHT22;5835;42.930;25.178;2022-11-11T15:43:17;9.30;99.90
11559;DHT22;5835;42.930;25.178;2022-11-11T15:45:49;9.30;99.90
11559;DHT22;5835;42.930;25.178;2022-11-11T15:48:20;9.30;99.90
11559;DHT22;5835;42.930;25.178;2022-11-11T15:50:48;9.30;99.90
11559;DHT22;5835;42.930;25.178;2022-11-11T15:53:23;9.30;99.90
11559;DHT22;5835;42.930;25.178;2022-11-11T15:55:55;9.30;99.90
11559;DHT22;5835;42.930;25.178;2022-11-11T15:58:27;9.30;99.90
11559;DHT22;5835;42.930;25.178;2022-11-11T16:00:55;9.20;99.90
11559;DHT22;5835;42.930;25.178;2022-11-11T16:03:28;9.20;99.90
11559;DHT22;5835;42.930;25.178;2022-11-11T16:05:59;9.30;99.90
11559;DHT22;5835;42.930;25.178;2022-11-11T16:08:28;9.20;99.90
11559;DHT22;5835;42.930;25.178;2022-11-11T16:10:57;9.30;99.90
11559;DHT22;5835;42.930;25.178;2022-11-11T16:13:27;9.20;99.90
11559;DHT22;5835;42.930;25.178;2022-11-11T16:16:00;9.20;99.90
11559;DHT22;5835;42.930;25.178;2022-11-11T16:18:33;9.20;99.90
11559;DHT22;5835;42.930;25.178;2022-11-11T16:21:07;9.20;99.90
11559;DHT22;5835;42.930;25.178;2022-11-11T16:23:39;9.20;99.90
11559;DHT22;5835;42.930;25.178;2022-11-11T16:26:07;9.30;99.90
11559;DHT22;5835;42.930;25.178;2022-11-11T16:28:38;9.20;99.90
11559;DHT22;5835;42.930;25.178;2022-11-11T16:31:29;9.20;99.90
11559;DHT22;5835;42.930;25.178;2022-11-11T16:34:33;9.20;99.90
11559;DHT22;5835;42.930;25.178;2022-11-11T16:37:02;9.20;99.90